sensor_id;sensor_type;location;lat;lon;timestamp;P1;durP1;ratioP1;P2;durP2;ratioP2
61200;SDS011;47065;52.898;6.992;2023-04-29T00:01:10;148.65;;;62.97;;
61200;SDS011;47065;52.898;6.992;2023-04-29T00:03:36;137.38;;;61.88;;
61200;SDS011;47065;52.898;6.992;2023-04-29T00:06:01;135.27;;;59.45;;
61200;SDS011;47065;52.898;6.992;2023-04-29T00:08:27;149.98;;;61.20;;
61200;SDS011;47065;52.898;6.992;2023-04-29T00:10:53;104.45;;;51.92;;
61200;SDS011;47065;52.898;6.992;2023-04-29T00:13:18;100.68;;;52.03;;
61200;SDS011;47065;52.898;6.992;2023-04-29T00:15:45;104.72;;;49.85;;
61200;SDS011;47065;52.898;6.992;2023-04-29T00:18:11;104.65;;;52.55;;
61200;SDS011;47065;52.898;6.992;2023-04-29T00:20:37;103.40;;;52.08;;
61200;SDS011;47065;52.898;6.992;2023-04-29T00:23:03;108.82;;;53.38;;
61200;SDS011;47065;52.898;6.992;2023-04-29T00:25:30;99.47;;;49.83;;
61200;SDS011;47065;52.898;6.992;2023-04-29T00:27:56;89.60;;;50.15;;
61200;SDS011;47065;52.898;6.992;2023-04-29T00:30:25;100.50;;;50.47;;
61200;SDS011;47065;52.898;6.992;2023-04-29T00:32:55;102.00;;;53.42;;
61200;SDS011;47065;52.898;6.992;2023-04-29T00:35:20;109.72;;;50.35;;
61200;SDS011;47065;52.898;6.992;2023-04-29T00:37:46;95.70;;;50.30;;
61200;SDS011;47065;52.898;6.992;2023-04-29T00:40:12;94.95;;;49.40;;
61200;SDS011;47065;52.898;6.992;2023-04-29T00:42:41;96.50;;;49.80;;
61200;SDS011;47065;52.898;6.992;2023-04-29T00:45:07;96.13;;;50.15;;
61200;SDS011;47065;52.898;6.992;2023-04-29T00:47:35;90.60;;;47.13;;
61200;SDS011;47065;52.898;6.992;2023-04-29T00:50:01;83.85;;;45.58;;
61200;SDS011;47065;52.898;6.992;2023-04-29T00:52:28;83.68;;;45.78;;
61200;SDS011;47065;52.898;6.992;2023-04-29T00:54:55;82.60;;;46.58;;
61200;SDS011;47065;52.898;6.992;2023-04-29T00:57:21;92.15;;;47.83;;
61200;SDS011;47065;52.898;6.992;2023-04-29T00:59:47;95.22;;;47.83;;
61200;SDS011;47065;52.898;6.992;2023-04-29T01:02:13;88.88;;;49.35;;
61200;SDS011;47065;52.898;6.992;2023-04-29T01:04:40;97.75;;;49.80;;
61200;SDS011;47065;52.898;6.992;2023-04-29T01:12:45;108.82;;;51.55;;
61200;SDS011;47065;52.898;6.992;2023-04-29T01:15:34;98.70;;;50.35;;
61200;SDS011;47065;52.898;6.992;2023-04-29T01:18:32;103.78;;;50.65;;
61200;SDS011;47065;52.898;6.992;2023-04-29T01:21:03;98.13;;;50.28;;
61200;SDS011;47065;52.898;6.992;2023-04-29T01:23:29;92.43;;;48.50;;
61200;SDS011;47065;52.898;6.992;2023-04-29T01:25:55;95.97;;;50.03;;
61200;SDS011;47065;52.898;6.992;2023-04-29T01:28:25;96.72;;;49.65;;
61200;SDS011;47065;52.898;6.992;2023-04-29T01:31:00;103.70;;;50.25;;
61200;SDS011;47065;52.898;6.992;2023-04-29T01:42:35;103.88;;;50.28;;
61200;SDS011;47065;52.898;6.992;2023-04-29T01:45:09;108.00;;;53.20;;
61200;SDS011;47065;52.898;6.992;2023-04-29T01:47:35;119.05;;;53.47;;
61200;SDS011;47065;52.898;6.992;2023-04-29T01:50:01;97.57;;;51.70;;
61200;SDS011;47065;52.898;6.992;2023-04-29T01:52:27;97.20;;;48.85;;
61200;SDS011;47065;52.898;6.992;2023-04-29T01:54:53;90.60;;;46.33;;
61200;SDS011;47065;52.898;6.992;2023-04-29T01:57:19;91.82;;;46.55;;
61200;SDS011;47065;52.898;6.992;2023-04-29T01:59:44;93.22;;;46.47;;
61200;SDS011;47065;52.898;6.992;2023-04-29T02:02:10;83.85;;;46.00;;
61200;SDS011;47065;52.898;6.992;2023-04-29T02:04:35;88.05;;;42.88;;
61200;SDS011;47065;52.898;6.992;2023-04-29T02:07:01;76.70;;;42.67;;
61200;SDS011;47065;52.898;6.992;2023-04-29T02:09:28;80.68;;;43.30;;
61200;SDS011;47065;52.898;6.992;2023-04-29T02:11:53;76.82;;;41.75;;
61200;SDS011;47065;52.898;6.992;2023-04-29T02:14:19;80.03;;;41.05;;
61200;SDS011;47065;52.898;6.992;2023-04-29T02:16:45;79.15;;;41.33;;
61200;SDS011;47065;52.898;6.992;2023-04-29T02:19:11;74.38;;;36.60;;
61200;SDS011;47065;52.898;6.992;2023-04-29T02:21:37;71.70;;;39.25;;
61200;SDS011;47065;52.898;6.992;2023-04-29T02:24:04;76.57;;;37.72;;
61200;SDS011;47065;52.898;6.992;2023-04-29T02:26:30;61.33;;;32.95;;
61200;SDS011;47065;52.898;6.992;2023-04-29T02:28:57;76.07;;;36.60;;
61200;SDS011;47065;52.898;6.992;2023-04-29T02:31:22;71.38;;;36.15;;
61200;SDS011;47065;52.898;6.992;2023-04-29T02:33:48;72.68;;;36.47;;
61200;SDS011;47065;52.898;6.992;2023-04-29T02:36:13;67.65;;;36.97;;
61200;SDS011;47065;52.898;6.992;2023-04-29T02:38:39;67.45;;;36.13;;
61200;SDS011;47065;52.898;6.992;2023-04-29T02:41:06;62.60;;;35.88;;
61200;SDS011;47065;52.898;6.992;2023-04-29T02:43:32;57.60;;;35.13;;
61200;SDS011;47065;52.898;6.992;2023-04-29T02:45:58;57.20;;;33.33;;
61200;SDS011;47065;52.898;6.992;2023-04-29T02:48:24;58.15;;;32.42;;
61200;SDS011;47065;52.898;6.992;2023-04-29T02:50:49;65.40;;;32.85;;
61200;SDS011;47065;52.898;6.992;2023-04-29T02:53:15;61.20;;;32.90;;
61200;SDS011;47065;52.898;6.992;2023-04-29T02:55:41;61.03;;;32.95;;
61200;SDS011;47065;52.898;6.992;2023-04-29T02:58:08;52.70;;;31.80;;
61200;SDS011;47065;52.898;6.992;2023-04-29T03:00:33;61.40;;;33.45;;
61200;SDS011;47065;52.898;6.992;2023-04-29T03:02:59;61.85;;;34.13;;
61200;SDS011;47065;52.898;6.992;2023-04-29T03:05:25;71.82;;;36.92;;
61200;SDS011;47065;52.898;6.992;2023-04-29T03:07:51;71.68;;;37.38;;
61200;SDS011;47065;52.898;6.992;2023-04-29T03:10:16;71.20;;;36.88;;
61200;SDS011;47065;52.898;6.992;2023-04-29T03:12:43;64.78;;;35.08;;
61200;SDS011;47065;52.898;6.992;2023-04-29T03:15:08;62.47;;;33.50;;
61200;SDS011;47065;52.898;6.992;2023-04-29T03:17:35;68.75;;;34.75;;
61200;SDS011;47065;52.898;6.992;2023-04-29T03:20:01;59.13;;;32.28;;
61200;SDS011;47065;52.898;6.992;2023-04-29T03:22:27;63.22;;;34.10;;
61200;SDS011;47065;52.898;6.992;2023-04-29T03:24:53;70.85;;;33.92;;
61200;SDS011;47065;52.898;6.992;2023-04-29T03:27:19;58.88;;;31.38;;
61200;SDS011;47065;52.898;6.992;2023-04-29T03:29:44;62.83;;;35.28;;
61200;SDS011;47065;52.898;6.992;2023-04-29T03:32:10;61.60;;;32.28;;
61200;SDS011;47065;52.898;6.992;2023-04-29T03:34:36;67.72;;;32.15;;
61200;SDS011;47065;52.898;6.992;2023-04-29T03:37:01;65.78;;;30.95;;
61200;SDS011;47065;52.898;6.992;2023-04-29T03:39:27;65.53;;;30.63;;
61200;SDS011;47065;52.898;6.992;2023-04-29T03:41:56;53.92;;;27.38;;
61200;SDS011;47065;52.898;6.992;2023-04-29T03:44:23;59.90;;;28.98;;
61200;SDS011;47065;52.898;6.992;2023-04-29T03:46:49;56.83;;;27.17;;
61200;SDS011;47065;52.898;6.992;2023-04-29T03:49:15;55.90;;;28.05;;
61200;SDS011;47065;52.898;6.992;2023-04-29T03:51:41;53.85;;;26.85;;
61200;SDS011;47065;52.898;6.992;2023-04-29T03:54:09;61.25;;;28.00;;
61200;SDS011;47065;52.898;6.992;2023-04-29T03:56:35;52.55;;;26.83;;
61200;SDS011;47065;52.898;6.992;2023-04-29T03:59:01;46.10;;;26.85;;
61200;SDS011;47065;52.898;6.992;2023-04-29T04:01:27;49.15;;;27.42;;
61200;SDS011;47065;52.898;6.992;2023-04-29T04:03:52;50.17;;;27.48;;
61200;SDS011;47065;52.898;6.992;2023-04-29T04:06:18;52.83;;;26.67;;
61200;SDS011;47065;52.898;6.992;2023-04-29T04:08:43;52.67;;;27.08;;
61200;SDS011;47065;52.898;6.992;2023-04-29T04:11:09;46.85;;;24.65;;
61200;SDS011;47065;52.898;6.992;2023-04-29T04:13:35;54.00;;;26.02;;
61200;SDS011;47065;52.898;6.992;2023-04-29T04:16:01;52.25;;;26.83;;
61200;SDS011;47065;52.898;6.992;2023-04-29T04:18:27;49.58;;;26.48;;
61200;SDS011;47065;52.898;6.992;2023-04-29T04:20:53;46.95;;;24.73;;
61200;SDS011;47065;52.898;6.992;2023-04-29T04:23:18;49.33;;;26.48;;
61200;SDS011;47065;52.898;6.992;2023-04-29T04:25:47;47.88;;;25.88;;
61200;SDS011;47065;52.898;6.992;2023-04-29T04:28:13;48.58;;;27.45;;
61200;SDS011;47065;52.898;6.992;2023-04-29T04:30:39;45.78;;;25.73;;
61200;SDS011;47065;52.898;6.992;2023-04-29T04:33:06;45.45;;;26.80;;
61200;SDS011;47065;52.898;6.992;2023-04-29T04:35:32;52.70;;;25.83;;
61200;SDS011;47065;52.898;6.992;2023-04-29T04:37:58;46.10;;;25.33;;
61200;SDS011;47065;52.898;6.992;2023-04-29T04:40:23;48.72;;;25.00;;
61200;SDS011;47065;52.898;6.992;2023-04-29T04:42:49;49.72;;;24.42;;
61200;SDS011;47065;52.898;6.992;2023-04-29T04:45:14;45.47;;;24.13;;
61200;SDS011;47065;52.898;6.992;2023-04-29T04:47:40;43.25;;;22.67;;
61200;SDS011;47065;52.898;6.992;2023-04-29T04:50:06;42.70;;;22.98;;
61200;SDS011;47065;52.898;6.992;2023-04-29T04:52:33;41.55;;;22.40;;
61200;SDS011;47065;52.898;6.992;2023-04-29T04:54:58;39.28;;;23.50;;
61200;SDS011;47065;52.898;6.992;2023-04-29T04:57:24;40.28;;;20.95;;
61200;SDS011;47065;52.898;6.992;2023-04-29T04:59:50;43.22;;;22.88;;
61200;SDS011;47065;52.898;6.992;2023-04-29T05:02:15;46.90;;;21.83;;
61200;SDS011;47065;52.898;6.992;2023-04-29T05:04:41;46.40;;;23.25;;
61200;SDS011;47065;52.898;6.992;2023-04-29T05:07:07;44.08;;;25.00;;
61200;SDS011;47065;52.898;6.992;2023-04-29T05:09:33;48.88;;;23.65;;
61200;SDS011;47065;52.898;6.992;2023-04-29T05:11:58;43.70;;;24.98;;
61200;SDS011;47065;52.898;6.992;2023-04-29T05:14:24;47.58;;;24.13;;
61200;SDS011;47065;52.898;6.992;2023-04-29T05:16:50;46.35;;;24.13;;
61200;SDS011;47065;52.898;6.992;2023-04-29T05:19:17;47.97;;;24.88;;
61200;SDS011;47065;52.898;6.992;2023-04-29T05:21:43;53.35;;;25.02;;
61200;SDS011;47065;52.898;6.992;2023-04-29T05:24:08;43.97;;;23.42;;
61200;SDS011;47065;52.898;6.992;2023-04-29T05:26:34;48.95;;;23.45;;
61200;SDS011;47065;52.898;6.992;2023-04-29T05:29:00;44.70;;;24.38;;
61200;SDS011;47065;52.898;6.992;2023-04-29T05:31:25;47.10;;;23.67;;
61200;SDS011;47065;52.898;6.992;2023-04-29T05:33:52;45.30;;;24.65;;
61200;SDS011;47065;52.898;6.992;2023-04-29T05:36:18;46.15;;;24.05;;
61200;SDS011;47065;52.898;6.992;2023-04-29T05:38:44;47.63;;;23.67;;
61200;SDS011;47065;52.898;6.992;2023-04-29T05:41:10;47.53;;;24.30;;
61200;SDS011;47065;52.898;6.992;2023-04-29T05:43:35;49.17;;;22.63;;
61200;SDS011;47065;52.898;6.992;2023-04-29T05:46:01;43.25;;;23.15;;
61200;SDS011;47065;52.898;6.992;2023-04-29T05:48:27;41.08;;;21.13;;
61200;SDS011;47065;52.898;6.992;2023-04-29T05:50:53;41.33;;;21.27;;
61200;SDS011;47065;52.898;6.992;2023-04-29T05:53:19;36.53;;;20.80;;
61200;SDS011;47065;52.898;6.992;2023-04-29T05:55:45;41.45;;;20.85;;
61200;SDS011;47065;52.898;6.992;2023-04-29T05:58:11;40.72;;;19.13;;
61200;SDS011;47065;52.898;6.992;2023-04-29T06:00:37;36.58;;;19.50;;
61200;SDS011;47065;52.898;6.992;2023-04-29T06:03:03;34.00;;;20.35;;
61200;SDS011;47065;52.898;6.992;2023-04-29T06:05:29;36.35;;;20.35;;
61200;SDS011;47065;52.898;6.992;2023-04-29T06:07:54;38.85;;;20.50;;
61200;SDS011;47065;52.898;6.992;2023-04-29T06:10:20;37.97;;;19.92;;
61200;SDS011;47065;52.898;6.992;2023-04-29T06:12:46;43.13;;;21.50;;
61200;SDS011;47065;52.898;6.992;2023-04-29T06:15:14;34.05;;;20.92;;
61200;SDS011;47065;52.898;6.992;2023-04-29T06:17:40;33.55;;;19.20;;
61200;SDS011;47065;52.898;6.992;2023-04-29T06:20:06;37.13;;;20.20;;
61200;SDS011;47065;52.898;6.992;2023-04-29T06:22:33;40.47;;;21.63;;
61200;SDS011;47065;52.898;6.992;2023-04-29T06:24:58;41.85;;;23.25;;
61200;SDS011;47065;52.898;6.992;2023-04-29T06:27:24;40.70;;;21.08;;
61200;SDS011;47065;52.898;6.992;2023-04-29T06:29:49;35.13;;;19.15;;
61200;SDS011;47065;52.898;6.992;2023-04-29T06:32:15;38.30;;;19.75;;
61200;SDS011;47065;52.898;6.992;2023-04-29T06:34:40;39.70;;;21.33;;
61200;SDS011;47065;52.898;6.992;2023-04-29T06:37:06;46.63;;;20.90;;
61200;SDS011;47065;52.898;6.992;2023-04-29T06:39:32;38.25;;;19.40;;
61200;SDS011;47065;52.898;6.992;2023-04-29T06:41:58;38.45;;;19.55;;
61200;SDS011;47065;52.898;6.992;2023-04-29T06:44:23;34.72;;;19.33;;
61200;SDS011;47065;52.898;6.992;2023-04-29T06:46:49;33.42;;;18.35;;
61200;SDS011;47065;52.898;6.992;2023-04-29T06:49:15;30.08;;;18.83;;
61200;SDS011;47065;52.898;6.992;2023-04-29T06:51:41;30.30;;;17.95;;
61200;SDS011;47065;52.898;6.992;2023-04-29T06:54:07;27.23;;;17.70;;
61200;SDS011;47065;52.898;6.992;2023-04-29T06:56:32;29.65;;;17.08;;
61200;SDS011;47065;52.898;6.992;2023-04-29T06:58:58;26.55;;;18.05;;
61200;SDS011;47065;52.898;6.992;2023-04-29T07:01:24;33.83;;;18.25;;
61200;SDS011;47065;52.898;6.992;2023-04-29T07:03:49;26.77;;;16.65;;
61200;SDS011;47065;52.898;6.992;2023-04-29T07:06:15;24.65;;;13.85;;
61200;SDS011;47065;52.898;6.992;2023-04-29T07:08:40;22.38;;;13.40;;
61200;SDS011;47065;52.898;6.992;2023-04-29T07:11:06;24.85;;;14.55;;
61200;SDS011;47065;52.898;6.992;2023-04-29T07:13:32;26.95;;;13.88;;
61200;SDS011;47065;52.898;6.992;2023-04-29T07:15:57;20.60;;;13.90;;
61200;SDS011;47065;52.898;6.992;2023-04-29T07:18:23;18.95;;;12.15;;
61200;SDS011;47065;52.898;6.992;2023-04-29T07:20:49;17.35;;;11.80;;
61200;SDS011;47065;52.898;6.992;2023-04-29T07:23:16;20.38;;;11.60;;
61200;SDS011;47065;52.898;6.992;2023-04-29T07:25:42;27.40;;;11.13;;
61200;SDS011;47065;52.898;6.992;2023-04-29T07:28:08;16.88;;;11.35;;
61200;SDS011;47065;52.898;6.992;2023-04-29T07:30:33;14.50;;;9.82;;
61200;SDS011;47065;52.898;6.992;2023-04-29T07:33:00;17.90;;;10.82;;
61200;SDS011;47065;52.898;6.992;2023-04-29T07:35:26;15.02;;;10.77;;
61200;SDS011;47065;52.898;6.992;2023-04-29T07:37:51;12.93;;;9.98;;
61200;SDS011;47065;52.898;6.992;2023-04-29T07:40:17;14.10;;;8.93;;
61200;SDS011;47065;52.898;6.992;2023-04-29T07:42:43;14.48;;;10.18;;
61200;SDS011;47065;52.898;6.992;2023-04-29T07:45:08;16.50;;;9.93;;
61200;SDS011;47065;52.898;6.992;2023-04-29T07:47:34;15.20;;;9.63;;
61200;SDS011;47065;52.898;6.992;2023-04-29T07:50:00;18.08;;;9.23;;
61200;SDS011;47065;52.898;6.992;2023-04-29T07:52:26;23.52;;;9.50;;
61200;SDS011;47065;52.898;6.992;2023-04-29T07:54:51;13.80;;;8.82;;
61200;SDS011;47065;52.898;6.992;2023-04-29T07:57:20;13.05;;;9.32;;
61200;SDS011;47065;52.898;6.992;2023-04-29T07:59:45;14.43;;;10.10;;
61200;SDS011;47065;52.898;6.992;2023-04-29T08:02:11;12.27;;;8.63;;
61200;SDS011;47065;52.898;6.992;2023-04-29T08:04:38;14.07;;;8.75;;
61200;SDS011;47065;52.898;6.992;2023-04-29T08:07:05;17.25;;;8.98;;
61200;SDS011;47065;52.898;6.992;2023-04-29T08:09:31;17.13;;;8.88;;
61200;SDS011;47065;52.898;6.992;2023-04-29T08:11:57;14.90;;;8.07;;
61200;SDS011;47065;52.898;6.992;2023-04-29T08:14:22;13.20;;;7.72;;
61200;SDS011;47065;52.898;6.992;2023-04-29T08:16:48;12.13;;;7.45;;
61200;SDS011;47065;52.898;6.992;2023-04-29T08:19:13;15.00;;;7.95;;
61200;SDS011;47065;52.898;6.992;2023-04-29T08:21:39;10.63;;;8.02;;
61200;SDS011;47065;52.898;6.992;2023-04-29T08:24:05;13.70;;;9.07;;
61200;SDS011;47065;52.898;6.992;2023-04-29T08:26:31;11.90;;;7.35;;
61200;SDS011;47065;52.898;6.992;2023-04-29T08:28:56;15.32;;;7.65;;
61200;SDS011;47065;52.898;6.992;2023-04-29T08:31:22;11.00;;;6.90;;
61200;SDS011;47065;52.898;6.992;2023-04-29T08:33:48;10.75;;;8.00;;
61200;SDS011;47065;52.898;6.992;2023-04-29T08:36:13;11.65;;;7.25;;
61200;SDS011;47065;52.898;6.992;2023-04-29T08:38:39;11.30;;;8.18;;
61200;SDS011;47065;52.898;6.992;2023-04-29T08:41:08;14.00;;;8.07;;
61200;SDS011;47065;52.898;6.992;2023-04-29T08:43:37;12.57;;;7.00;;
61200;SDS011;47065;52.898;6.992;2023-04-29T08:46:04;10.73;;;7.78;;
61200;SDS011;47065;52.898;6.992;2023-04-29T08:48:30;9.43;;;7.28;;
61200;SDS011;47065;52.898;6.992;2023-04-29T08:50:56;12.02;;;6.70;;
61200;SDS011;47065;52.898;6.992;2023-04-29T08:53:23;10.45;;;7.40;;
61200;SDS011;47065;52.898;6.992;2023-04-29T08:55:49;11.40;;;7.65;;
61200;SDS011;47065;52.898;6.992;2023-04-29T08:58:15;10.88;;;8.20;;
61200;SDS011;47065;52.898;6.992;2023-04-29T09:00:43;9.15;;;6.63;;
61200;SDS011;47065;52.898;6.992;2023-04-29T09:05:48;10.77;;;7.25;;
61200;SDS011;47065;52.898;6.992;2023-04-29T09:08:17;11.50;;;6.13;;
61200;SDS011;47065;52.898;6.992;2023-04-29T09:10:45;12.27;;;6.63;;
61200;SDS011;47065;52.898;6.992;2023-04-29T09:13:28;8.55;;;6.22;;
61200;SDS011;47065;52.898;6.992;2023-04-29T09:15:55;10.27;;;6.85;;
61200;SDS011;47065;52.898;6.992;2023-04-29T09:21:27;10.90;;;6.43;;
61200;SDS011;47065;52.898;6.992;2023-04-29T09:23:57;8.45;;;5.90;;
61200;SDS011;47065;52.898;6.992;2023-04-29T09:26:24;8.88;;;5.88;;
61200;SDS011;47065;52.898;6.992;2023-04-29T09:29:05;6.60;;;5.65;;
61200;SDS011;47065;52.898;6.992;2023-04-29T09:31:33;8.77;;;5.22;;
61200;SDS011;47065;52.898;6.992;2023-04-29T09:33:59;7.43;;;5.55;;
61200;SDS011;47065;52.898;6.992;2023-04-29T09:39:08;10.93;;;5.82;;
61200;SDS011;47065;52.898;6.992;2023-04-29T09:44:19;7.90;;;5.25;;
61200;SDS011;47065;52.898;6.992;2023-04-29T09:47:04;6.57;;;5.45;;
61200;SDS011;47065;52.898;6.992;2023-04-29T09:49:32;8.25;;;5.72;;
61200;SDS011;47065;52.898;6.992;2023-04-29T09:52:02;9.18;;;5.57;;
61200;SDS011;47065;52.898;6.992;2023-04-29T09:54:29;7.15;;;5.45;;
61200;SDS011;47065;52.898;6.992;2023-04-29T09:56:57;6.45;;;5.15;;
61200;SDS011;47065;52.898;6.992;2023-04-29T09:59:24;7.68;;;6.18;;
61200;SDS011;47065;52.898;6.992;2023-04-29T10:01:52;6.65;;;5.95;;
61200;SDS011;47065;52.898;6.992;2023-04-29T10:04:20;7.93;;;6.10;;
61200;SDS011;47065;52.898;6.992;2023-04-29T10:06:50;7.28;;;6.03;;
61200;SDS011;47065;52.898;6.992;2023-04-29T10:09:20;7.80;;;5.60;;
61200;SDS011;47065;52.898;6.992;2023-04-29T10:11:48;6.50;;;5.90;;
61200;SDS011;47065;52.898;6.992;2023-04-29T10:16:48;9.27;;;6.10;;
61200;SDS011;47065;52.898;6.992;2023-04-29T10:19:25;9.65;;;5.60;;
61200;SDS011;47065;52.898;6.992;2023-04-29T10:21:57;7.95;;;6.35;;
61200;SDS011;47065;52.898;6.992;2023-04-29T10:24:29;10.60;;;6.53;;
61200;SDS011;47065;52.898;6.992;2023-04-29T10:26:56;9.27;;;7.32;;
61200;SDS011;47065;52.898;6.992;2023-04-29T10:29:24;8.27;;;6.40;;
61200;SDS011;47065;52.898;6.992;2023-04-29T10:31:51;9.20;;;6.45;;
61200;SDS011;47065;52.898;6.992;2023-04-29T10:34:18;10.70;;;7.18;;
61200;SDS011;47065;52.898;6.992;2023-04-29T10:36:44;7.32;;;6.60;;
61200;SDS011;47065;52.898;6.992;2023-04-29T10:39:12;10.43;;;6.72;;
61200;SDS011;47065;52.898;6.992;2023-04-29T10:41:45;8.77;;;6.88;;
61200;SDS011;47065;52.898;6.992;2023-04-29T10:44:11;11.45;;;7.55;;
61200;SDS011;47065;52.898;6.992;2023-04-29T10:46:38;8.77;;;6.72;;
61200;SDS011;47065;52.898;6.992;2023-04-29T10:49:04;10.98;;;7.22;;
61200;SDS011;47065;52.898;6.992;2023-04-29T10:51:34;8.75;;;6.18;;
61200;SDS011;47065;52.898;6.992;2023-04-29T10:56:36;8.57;;;6.30;;
61200;SDS011;47065;52.898;6.992;2023-04-29T10:59:10;7.50;;;6.25;;
61200;SDS011;47065;52.898;6.992;2023-04-29T11:01:44;8.35;;;6.18;;
61200;SDS011;47065;52.898;6.992;2023-04-29T11:04:19;12.30;;;6.35;;
61200;SDS011;47065;52.898;6.992;2023-04-29T11:06:52;8.70;;;6.78;;
61200;SDS011;47065;52.898;6.992;2023-04-29T11:09:20;10.38;;;6.50;;
61200;SDS011;47065;52.898;6.992;2023-04-29T11:14:20;7.38;;;5.78;;
61200;SDS011;47065;52.898;6.992;2023-04-29T11:16:52;8.48;;;5.63;;
61200;SDS011;47065;52.898;6.992;2023-04-29T11:19:20;8.13;;;5.03;;
61200;SDS011;47065;52.898;6.992;2023-04-29T11:22:02;11.07;;;5.05;;
61200;SDS011;47065;52.898;6.992;2023-04-29T11:24:33;5.05;;;4.38;;
61200;SDS011;47065;52.898;6.992;2023-04-29T11:27:00;7.18;;;4.28;;
61200;SDS011;47065;52.898;6.992;2023-04-29T11:29:30;9.30;;;4.70;;
61200;SDS011;47065;52.898;6.992;2023-04-29T11:32:06;6.55;;;4.63;;
61200;SDS011;47065;52.898;6.992;2023-04-29T11:34:32;5.35;;;4.68;;
61200;SDS011;47065;52.898;6.992;2023-04-29T11:36:57;6.72;;;4.15;;
61200;SDS011;47065;52.898;6.992;2023-04-29T11:39:25;6.20;;;4.93;;
61200;SDS011;47065;52.898;6.992;2023-04-29T11:41:51;8.15;;;4.82;;
61200;SDS011;47065;52.898;6.992;2023-04-29T11:44:20;10.18;;;4.60;;
61200;SDS011;47065;52.898;6.992;2023-04-29T11:46:46;7.25;;;5.18;;
61200;SDS011;47065;52.898;6.992;2023-04-29T11:49:13;8.80;;;5.43;;
61200;SDS011;47065;52.898;6.992;2023-04-29T11:51:39;8.07;;;4.63;;
61200;SDS011;47065;52.898;6.992;2023-04-29T11:54:05;5.25;;;4.20;;
61200;SDS011;47065;52.898;6.992;2023-04-29T11:56:31;9.27;;;5.30;;
61200;SDS011;47065;52.898;6.992;2023-04-29T11:58:57;9.40;;;4.93;;
61200;SDS011;47065;52.898;6.992;2023-04-29T12:01:24;7.70;;;4.65;;
61200;SDS011;47065;52.898;6.992;2023-04-29T12:03:50;9.93;;;4.35;;
61200;SDS011;47065;52.898;6.992;2023-04-29T12:06:21;8.10;;;4.45;;
61200;SDS011;47065;52.898;6.992;2023-04-29T12:08:51;8.60;;;4.20;;
61200;SDS011;47065;52.898;6.992;2023-04-29T12:11:17;10.05;;;4.55;;
61200;SDS011;47065;52.898;6.992;2023-04-29T12:13:44;9.18;;;5.38;;
61200;SDS011;47065;52.898;6.992;2023-04-29T12:16:10;5.43;;;4.78;;
61200;SDS011;47065;52.898;6.992;2023-04-29T12:18:36;9.52;;;4.40;;
61200;SDS011;47065;52.898;6.992;2023-04-29T12:21:02;7.95;;;4.35;;
61200;SDS011;47065;52.898;6.992;2023-04-29T12:23:28;6.60;;;4.43;;
61200;SDS011;47065;52.898;6.992;2023-04-29T12:25:55;8.93;;;4.38;;
61200;SDS011;47065;52.898;6.992;2023-04-29T12:28:24;7.57;;;4.68;;
61200;SDS011;47065;52.898;6.992;2023-04-29T12:30:51;7.70;;;4.43;;
61200;SDS011;47065;52.898;6.992;2023-04-29T12:33:24;6.72;;;4.22;;
61200;SDS011;47065;52.898;6.992;2023-04-29T12:35:51;7.05;;;4.82;;
61200;SDS011;47065;52.898;6.992;2023-04-29T12:38:25;10.60;;;4.35;;
61200;SDS011;47065;52.898;6.992;2023-04-29T12:40:55;9.00;;;4.40;;
61200;SDS011;47065;52.898;6.992;2023-04-29T12:43:29;6.95;;;4.55;;
61200;SDS011;47065;52.898;6.992;2023-04-29T12:46:01;5.50;;;3.78;;
61200;SDS011;47065;52.898;6.992;2023-04-29T12:48:29;6.45;;;3.75;;
61200;SDS011;47065;52.898;6.992;2023-04-29T12:50:56;6.35;;;3.97;;
61200;SDS011;47065;52.898;6.992;2023-04-29T12:53:23;6.32;;;3.45;;
61200;SDS011;47065;52.898;6.992;2023-04-29T12:55:50;4.28;;;2.58;;
61200;SDS011;47065;52.898;6.992;2023-04-29T12:58:16;5.53;;;2.72;;
61200;SDS011;47065;52.898;6.992;2023-04-29T13:00:42;2.70;;;2.50;;
61200;SDS011;47065;52.898;6.992;2023-04-29T13:03:07;4.72;;;2.80;;
61200;SDS011;47065;52.898;6.992;2023-04-29T13:05:33;3.08;;;2.30;;
61200;SDS011;47065;52.898;6.992;2023-04-29T13:07:59;2.35;;;2.15;;
61200;SDS011;47065;52.898;6.992;2023-04-29T13:10:25;3.25;;;2.40;;
61200;SDS011;47065;52.898;6.992;2023-04-29T13:12:52;4.53;;;2.47;;
61200;SDS011;47065;52.898;6.992;2023-04-29T13:15:19;4.55;;;2.55;;
61200;SDS011;47065;52.898;6.992;2023-04-29T13:17:45;4.20;;;3.13;;
61200;SDS011;47065;52.898;6.992;2023-04-29T13:20:11;4.43;;;3.15;;
61200;SDS011;47065;52.898;6.992;2023-04-29T13:22:37;4.93;;;2.78;;
61200;SDS011;47065;52.898;6.992;2023-04-29T13:25:03;6.03;;;3.10;;
61200;SDS011;47065;52.898;6.992;2023-04-29T13:27:29;5.20;;;2.33;;
61200;SDS011;47065;52.898;6.992;2023-04-29T13:29:55;4.53;;;2.75;;
61200;SDS011;47065;52.898;6.992;2023-04-29T13:32:21;5.80;;;2.50;;
61200;SDS011;47065;52.898;6.992;2023-04-29T13:34:49;5.57;;;2.85;;
61200;SDS011;47065;52.898;6.992;2023-04-29T13:37:14;3.33;;;2.63;;
61200;SDS011;47065;52.898;6.992;2023-04-29T13:39:41;7.05;;;3.13;;
61200;SDS011;47065;52.898;6.992;2023-04-29T13:42:07;4.03;;;2.60;;
61200;SDS011;47065;52.898;6.992;2023-04-29T13:44:32;2.72;;;2.47;;
61200;SDS011;47065;52.898;6.992;2023-04-29T13:46:58;6.65;;;3.38;;
61200;SDS011;47065;52.898;6.992;2023-04-29T13:49:24;5.70;;;3.35;;
61200;SDS011;47065;52.898;6.992;2023-04-29T13:51:51;3.63;;;2.67;;
61200;SDS011;47065;52.898;6.992;2023-04-29T13:54:17;6.70;;;3.25;;
61200;SDS011;47065;52.898;6.992;2023-04-29T13:56:45;6.80;;;3.22;;
61200;SDS011;47065;52.898;6.992;2023-04-29T13:59:13;8.85;;;4.35;;
61200;SDS011;47065;52.898;6.992;2023-04-29T14:01:39;5.50;;;3.13;;
61200;SDS011;47065;52.898;6.992;2023-04-29T14:04:04;5.95;;;3.20;;
61200;SDS011;47065;52.898;6.992;2023-04-29T14:06:30;8.35;;;2.80;;
61200;SDS011;47065;52.898;6.992;2023-04-29T14:08:56;5.38;;;2.95;;
61200;SDS011;47065;52.898;6.992;2023-04-29T14:11:22;2.80;;;2.53;;
61200;SDS011;47065;52.898;6.992;2023-04-29T14:13:48;6.05;;;2.40;;
61200;SDS011;47065;52.898;6.992;2023-04-29T14:16:14;2.40;;;2.10;;
61200;SDS011;47065;52.898;6.992;2023-04-29T14:18:40;5.65;;;2.47;;
61200;SDS011;47065;52.898;6.992;2023-04-29T14:21:06;4.40;;;2.70;;
61200;SDS011;47065;52.898;6.992;2023-04-29T14:23:32;2.58;;;1.80;;
61200;SDS011;47065;52.898;6.992;2023-04-29T14:25:57;3.30;;;1.70;;
61200;SDS011;47065;52.898;6.992;2023-04-29T14:28:23;1.50;;;1.40;;
61200;SDS011;47065;52.898;6.992;2023-04-29T14:30:48;2.90;;;1.60;;
61200;SDS011;47065;52.898;6.992;2023-04-29T14:33:14;2.97;;;1.70;;
61200;SDS011;47065;52.898;6.992;2023-04-29T14:35:40;4.90;;;1.77;;
61200;SDS011;47065;52.898;6.992;2023-04-29T14:38:06;1.52;;;1.30;;
61200;SDS011;47065;52.898;6.992;2023-04-29T14:40:31;4.85;;;2.47;;
61200;SDS011;47065;52.898;6.992;2023-04-29T14:42:57;4.40;;;1.52;;
61200;SDS011;47065;52.898;6.992;2023-04-29T14:45:22;2.70;;;2.00;;
61200;SDS011;47065;52.898;6.992;2023-04-29T14:47:48;4.03;;;1.30;;
61200;SDS011;47065;52.898;6.992;2023-04-29T14:50:14;3.42;;;3.13;;
61200;SDS011;47065;52.898;6.992;2023-04-29T14:52:40;3.80;;;2.47;;
61200;SDS011;47065;52.898;6.992;2023-04-29T14:55:06;5.78;;;3.25;;
61200;SDS011;47065;52.898;6.992;2023-04-29T14:57:33;5.70;;;3.72;;
61200;SDS011;47065;52.898;6.992;2023-04-29T14:59:59;5.45;;;3.40;;
61200;SDS011;47065;52.898;6.992;2023-04-29T15:02:25;6.07;;;4.20;;